Time;durP1;ratioP1;P1;durP2;ratioP2;P2;SDS_P1;SDS_P2;PMS_P1;PMS_P2;Temp;Humidity;BMP_temperature;BMP_pressure;BME280_temperature;BME280_humidity;BME280_pressure;Samples;Min_cycle;Max_cycle;Signal;HPM_P1;HPM_P2
2022/01/10 00:02:24;;;;;;;31.58;12.00;;;;;;;2.17;100.00;100080.81;8284255;28;20042;-62
2022/01/10 00:06:24;;;;;;;33.92;12.10;;;;;;;1.92;100.00;100086.84;8283758;28;20076;-62
2022/01/10 00:10:25;;;;;;;28.33;11.35;;;;;;;1.94;100.00;100095.59;8268337;28;20254;-62
2022/01/10 00:14:25;;;;;;;33.90;12.80;;;;;;;2.05;100.00;100098.47;8276092;28;20043;-62
2022/01/10 00:18:25;;;;;;;29.83;10.45;;;;;;;1.97;100.00;100100.75;8277767;28;20535;-62
2022/01/10 00:22:26;;;;;;;24.77;10.13;;;;;;;1.97;100.00;100103.41;8278275;28;20311;-62
2022/01/10 00:26:27;;;;;;;30.33;9.80;;;;;;;1.89;100.00;100113.69;8274272;28;20041;-62
2022/01/10 00:30:27;;;;;;;24.63;10.70;;;;;;;1.90;100.00;100110.09;8291817;28;20045;-62
2022/01/10 00:34:28;;;;;;;26.23;9.95;;;;;;;1.99;100.00;100114.84;8319806;28;20171;-62
2022/01/10 00:38:28;;;;;;;34.20;10.60;;;;;;;1.63;100.00;100119.78;8301618;28;20029;-62
2022/01/10 00:42:30;;;;;;;36.88;10.73;;;;;;;1.49;100.00;100125.09;8291582;28;20498;-62
2022/01/10 00:46:30;;;;;;;26.00;12.57;;;;;;;1.40;100.00;100136.34;8292619;28;20087;-62
2022/01/10 00:50:33;;;;;;;28.50;11.52;;;;;;;1.50;100.00;100130.31;8293150;28;20073;-62
2022/01/10 00:54:33;;;;;;;35.13;12.05;;;;;;;1.66;100.00;100143.56;8292818;28;20056;-62
2022/01/10 00:58:36;;;;;;;31.17;10.60;;;;;;;1.49;100.00;100135.75;8292934;28;20037;-62
2022/01/10 01:02:36;;;;;;;25.98;10.73;;;;;;;1.45;100.00;100144.88;8292357;28;20460;-61
2022/01/10 01:06:37;;;;;;;30.30;12.25;;;;;;;1.37;100.00;100157.81;8291979;28;20061;-62
2022/01/10 01:15:19;;;;;;;42.35;14.55;;;;;;;1.51;100.00;100172.00;8403363;27;20379;-62
2022/01/10 01:24:05;;;;;;;22.83;10.60;;;;;;;1.42;100.00;100182.34;8416263;27;20352;-62
2022/01/10 01:27:54;;;;;;;31.10;10.85;;;;;;;1.17;100.00;100203.38;8412024;28;20047;-62
2022/01/10 01:31:55;;;;;;;24.35;10.40;;;;;;;1.36;100.00;100204.88;8420499;28;20036;-62
2022/01/10 01:35:55;;;;;;;34.67;12.65;;;;;;;1.32;100.00;100213.13;8444422;28;20070;-62
2022/01/10 01:39:57;;;;;;;28.33;11.73;;;;;;;1.26;100.00;100222.34;8415694;28;20156;-62
2022/01/10 01:43:59;;;;;;;33.00;13.63;;;;;;;1.37;100.00;100230.53;8412148;28;20036;-62
2022/01/10 01:47:59;;;;;;;32.42;13.65;;;;;;;1.32;100.00;100250.41;8448689;28;20453;-62
2022/01/10 01:52:00;;;;;;;31.50;12.05;;;;;;;1.19;100.00;100244.09;8421323;28;20024;-62
2022/01/10 01:56:00;;;;;;;37.00;12.52;;;;;;;1.22;100.00;100254.56;8415262;28;20111;-62
2022/01/10 02:00:01;;;;;;;33.85;13.52;;;;;;;1.32;100.00;100251.28;8413664;28;20500;-62
2022/01/10 02:04:02;;;;;;;30.38;13.55;;;;;;;1.28;100.00;100255.03;8393940;28;20045;-62
2022/01/10 02:08:03;;;;;;;30.45;12.52;;;;;;;1.30;100.00;100261.16;8412923;28;20046;-62
2022/01/10 02:12:04;;;;;;;38.67;12.13;;;;;;;1.23;100.00;100273.09;8385270;28;20041;-62
2022/01/10 02:16:06;;;;;;;34.25;12.93;;;;;;;1.17;100.00;100276.13;8369226;28;20064;-62
2022/01/10 02:20:07;;;;;;;30.85;14.00;;;;;;;1.31;100.00;100275.34;8370717;28;20044;-62
2022/01/10 02:24:08;;;;;;;27.17;12.35;;;;;;;1.35;100.00;100280.41;8396733;28;20048;-62
2022/01/10 02:28:09;;;;;;;37.75;15.32;;;;;;;1.39;100.00;100286.38;8395747;28;20083;-62
2022/01/10 02:32:09;;;;;;;33.92;12.93;;;;;;;1.39;100.00;100299.69;8368369;28;20453;-62
2022/01/10 02:36:25;;;;;;;34.00;12.65;;;;;;;1.30;100.00;100300.22;8346417;28;20033;-62
2022/01/10 02:40:28;;;;;;;31.52;11.93;;;;;;;1.49;100.00;100306.19;8375364;28;20067;-62
2022/01/10 02:44:29;;;;;;;41.88;12.85;;;;;;;1.49;100.00;100306.19;8375012;28;20048;-62
2022/01/10 02:48:30;;;;;;;27.38;11.27;;;;;;;1.49;100.00;100322.16;8374880;28;20496;-62
2022/01/10 02:52:31;;;;;;;32.83;11.45;;;;;;;1.49;100.00;100332.81;8361635;28;20447;-62
2022/01/10 02:56:31;;;;;;;30.83;12.15;;;;;;;1.46;100.00;100341.00;8364892;28;20040;-62
2022/01/10 03:00:32;;;;;;;28.23;11.60;;;;;;;1.40;100.00;100344.88;8341365;28;20036;-62
2022/01/10 03:04:32;;;;;;;34.20;11.63;;;;;;;1.34;100.00;100355.03;8343015;28;20045;-62
2022/01/10 03:08:33;;;;;;;27.67;11.20;;;;;;;1.26;100.00;100360.78;8374568;28;20035;-62
2022/01/10 03:12:35;;;;;;;28.20;11.52;;;;;;;1.25;100.00;100364.38;8353898;28;20120;-62
2022/01/10 03:16:36;;;;;;;32.28;10.80;;;;;;;1.20;100.00;100365.59;8374041;28;20085;-62
2022/01/10 03:20:37;;;;;;;24.70;10.05;;;;;;;1.17;100.00;100373.75;8374270;28;20033;-62
2022/01/10 03:24:37;;;;;;;27.00;10.90;;;;;;;1.21;100.00;100380.59;8366445;28;20461;-61
2022/01/10 03:28:38;;;;;;;26.83;10.88;;;;;;;1.18;100.00;100375.44;8340770;28;20048;-62
2022/01/10 03:32:38;;;;;;;31.67;10.52;;;;;;;1.15;100.00;100383.59;8327067;28;20041;-62
2022/01/10 03:36:40;;;;;;;24.55;8.90;;;;;;;1.10;100.00;100393.66;8336882;28;20060;-62
2022/01/10 03:40:40;;;;;;;24.02;8.65;;;;;;;1.13;100.00;100388.19;8367885;28;20044;-62
2022/01/10 03:44:41;;;;;;;29.80;10.45;;;;;;;1.06;100.00;100392.09;8345438;28;20112;-62
2022/01/10 03:48:41;;;;;;;28.08;9.88;;;;;;;0.88;100.00;100403.78;8340144;28;20041;-62
2022/01/10 03:52:42;;;;;;;32.22;10.68;;;;;;;0.79;100.00;100409.59;8361779;28;20516;-62
2022/01/10 03:56:43;;;;;;;31.67;10.50;;;;;;;0.75;100.00;100418.66;8356958;28;20040;-62
2022/01/10 04:00:44;;;;;;;21.08;9.80;;;;;;;0.65;100.00;100426.28;8346704;28;20041;-62
2022/01/10 04:04:44;;;;;;;28.08;11.13;;;;;;;0.68;100.00;100427.91;8342431;28;20740;-62
2022/01/10 04:08:44;;;;;;;26.13;10.07;;;;;;;0.56;100.00;100431.22;8346066;28;20789;-62
2022/01/10 04:12:45;;;;;;;28.63;10.93;;;;;;;0.83;100.00;100443.94;8356821;28;20041;-62
2022/01/10 04:16:45;;;;;;;26.15;10.18;;;;;;;0.83;100.00;100451.03;8376524;28;20037;-62
2022/01/10 04:20:46;;;;;;;22.30;10.18;;;;;;;0.76;100.00;100465.63;8360718;28;20069;-62
2022/01/10 04:24:47;;;;;;;20.45;9.82;;;;;;;0.65;100.00;100474.16;8343007;28;20041;-62
2022/01/10 04:28:49;;;;;;;25.90;9.82;;;;;;;0.80;100.00;100484.00;8342975;28;20120;-62
2022/01/10 04:32:49;;;;;;;23.48;9.80;;;;;;;0.93;100.00;100486.84;8331501;28;20068;-62
2022/01/10 04:36:49;;;;;;;25.30;9.55;;;;;;;1.16;100.00;100499.81;8340290;28;20043;-62
2022/01/10 04:40:50;;;;;;;21.40;9.40;;;;;;;1.29;100.00;100506.19;8373709;28;20033;-62
2022/01/10 04:44:51;;;;;;;26.08;10.00;;;;;;;1.33;100.00;100513.94;8375444;28;20082;-62
2022/01/10 04:48:51;;;;;;;19.15;9.48;;;;;;;1.27;100.00;100518.72;8357339;28;20086;-62
2022/01/10 04:52:52;;;;;;;23.50;9.00;;;;;;;1.16;100.00;100521.09;8367853;28;20040;-62
2022/01/10 04:56:52;;;;;;;32.80;10.10;;;;;;;1.27;100.00;100535.56;8356965;28;20035;-62
2022/01/10 05:00:55;;;;;;;25.73;9.27;;;;;;;1.32;100.00;100543.31;8357273;28;20033;-62
2022/01/10 05:04:55;;;;;;;18.70;8.32;;;;;;;1.55;100.00;100561.56;8357823;28;20577;-62
2022/01/10 05:08:56;;;;;;;17.85;8.93;;;;;;;1.49;100.00;100561.88;8370703;28;20678;-62
2022/01/10 05:12:56;;;;;;;29.45;9.85;;;;;;;1.41;100.00;100569.44;8364618;28;20037;-62
2022/01/10 05:16:56;;;;;;;23.42;9.18;;;;;;;1.46;100.00;100572.69;8341799;28;20032;-62
2022/01/10 05:20:57;;;;;;;30.42;9.88;;;;;;;1.56;100.00;100584.59;8348707;28;20111;-62
2022/01/10 05:24:57;;;;;;;29.95;10.65;;;;;;;1.82;100.00;100592.03;8357829;28;20468;-62
2022/01/10 05:29:00;;;;;;;21.77;10.02;;;;;;;1.87;100.00;100611.31;8359476;28;20036;-62
2022/01/10 05:33:01;;;;;;;27.85;10.13;;;;;;;1.85;100.00;100614.06;8340540;28;20090;-62
2022/01/10 05:37:01;;;;;;;26.30;10.30;;;;;;;1.79;100.00;100618.84;8353520;28;20044;-62
2022/01/10 05:41:02;;;;;;;30.83;10.10;;;;;;;1.78;100.00;100627.78;8368337;28;20087;-62
2022/01/10 05:45:03;;;;;;;29.85;10.48;;;;;;;1.78;100.00;100634.00;8360471;28;20094;-62
2022/01/10 05:49:06;;;;;;;26.88;10.10;;;;;;;1.90;100.00;100646.63;8345508;28;20041;-62
2022/01/10 05:53:08;;;;;;;27.80;10.60;;;;;;;1.85;100.00;100653.16;8353438;28;20099;-62
2022/01/10 05:57:09;;;;;;;21.95;11.15;;;;;;;1.95;100.00;100665.03;8346400;28;20035;-62
2022/01/10 06:01:09;;;;;;;25.65;10.95;;;;;;;2.00;100.00;100677.19;8366109;28;20044;-62
2022/01/10 06:05:11;;;;;;;28.48;10.25;;;;;;;2.04;100.00;100683.19;8349672;28;20044;-62
2022/01/10 06:09:11;;;;;;;23.45;10.65;;;;;;;2.21;100.00;100691.16;8362026;28;20035;-62
2022/01/10 06:13:12;;;;;;;24.58;10.60;;;;;;;2.22;100.00;100703.53;8365440;28;20040;-62
2022/01/10 06:17:12;;;;;;;26.35;10.05;;;;;;;2.05;100.00;100706.28;8351626;28;20448;-62
2022/01/10 06:21:12;;;;;;;33.30;11.15;;;;;;;2.04;100.00;100721.38;8378039;28;20033;-62
2022/01/10 06:25:18;;;;;;;29.05;11.63;;;;;;;2.04;100.00;100721.38;8366610;28;20082;-62
2022/01/10 06:29:18;;;;;;;24.50;11.05;;;;;;;2.13;100.00;100728.03;8346614;28;20041;-62
2022/01/10 06:33:18;;;;;;;25.35;10.40;;;;;;;2.15;100.00;100734.16;8353564;28;20085;-62
2022/01/10 06:37:19;;;;;;;24.58;9.52;;;;;;;2.78;100.00;100745.75;8338240;28;20094;-62
2022/01/10 06:41:20;;;;;;;26.65;10.02;;;;;;;2.30;100.00;100748.44;8327894;28;20037;-62
2022/01/10 06:45:20;;;;;;;28.00;9.05;;;;;;;2.26;100.00;100750.44;8341386;28;20034;-62
2022/01/10 06:49:21;;;;;;;24.13;9.38;;;;;;;2.24;100.00;100759.44;8354389;28;20226;-62
2022/01/10 06:53:21;;;;;;;19.35;8.95;;;;;;;2.21;100.00;100776.50;8372684;28;20025;-62
2022/01/10 06:57:22;;;;;;;22.42;9.10;;;;;;;2.23;100.00;100785.28;8357054;28;20042;-62
2022/01/10 07:01:22;;;;;;;26.55;9.45;;;;;;;2.15;100.00;100789.28;8334331;28;20048;-61
2022/01/10 07:05:23;;;;;;;28.00;10.48;;;;;;;2.21;100.00;100803.16;8363995;28;20125;-62
2022/01/10 07:09:23;;;;;;;26.55;9.20;;;;;;;2.19;100.00;100815.69;8365827;28;20044;-62
2022/01/10 07:13:24;;;;;;;22.30;8.68;;;;;;;2.09;100.00;100814.47;8362298;28;20041;-62
2022/01/10 07:17:25;;;;;;;58.47;22.13;;;;;;;2.13;100.00;100821.34;8361804;28;20436;-62
2022/01/10 07:21:25;;;;;;;26.60;11.07;;;;;;;2.10;100.00;100842.00;8358539;28;20036;-62
2022/01/10 07:25:25;;;;;;;25.92;11.75;;;;;;;2.12;100.00;100851.63;8359875;28;20036;-62
2022/01/10 07:29:26;;;;;;;37.65;15.07;;;;;;;2.13;100.00;100861.34;8361236;28;20044;-62
2022/01/10 07:33:26;;;;;;;51.95;18.73;;;;;;;2.09;100.00;100870.47;8363969;28;20060;-62
2022/01/10 07:37:27;;;;;;;73.32;30.80;;;;;;;2.06;100.00;100883.94;8363164;28;20094;-62
2022/01/10 07:41:27;;;;;;;31.88;12.77;;;;;;;1.94;100.00;100895.22;8367294;28;20041;-62
2022/01/10 07:45:27;;;;;;;28.52;11.55;;;;;;;1.90;100.00;100899.00;8366303;28;20040;-62
2022/01/10 07:49:28;;;;;;;28.85;12.32;;;;;;;1.98;100.00;100910.13;8364791;28;20115;-62
2022/01/10 07:53:29;;;;;;;33.15;12.13;;;;;;;1.98;100.00;100923.44;8358599;28;20033;-62
2022/01/10 07:57:30;;;;;;;35.25;12.85;;;;;;;2.10;100.00;100927.31;8362573;28;20132;-62
2022/01/10 08:01:30;;;;;;;37.53;14.10;;;;;;;2.19;100.00;100922.38;8363258;28;20059;-62
2022/01/10 08:05:31;;;;;;;39.97;15.10;;;;;;;2.20;100.00;100934.78;8355329;28;20045;-62
2022/01/10 08:09:31;;;;;;;37.40;14.80;;;;;;;2.22;100.00;100937.38;8357831;28;20032;-62
2022/01/10 08:13:31;;;;;;;29.83;13.27;;;;;;;2.11;100.00;100950.38;8353641;28;20036;-62
2022/01/10 08:17:32;;;;;;;27.15;12.73;;;;;;;2.12;100.00;100952.09;8360904;28;20060;-62
2022/01/10 08:21:33;;;;;;;33.53;12.27;;;;;;;2.21;100.00;100957.84;8357563;28;20569;-62
2022/01/10 08:25:33;;;;;;;27.70;12.77;;;;;;;2.36;100.00;100973.06;8356788;28;20137;-62
2022/01/10 08:29:34;;;;;;;32.03;12.02;;;;;;;2.47;100.00;100970.69;8366290;28;20067;-62
2022/01/10 08:33:34;;;;;;;27.90;11.18;;;;;;;2.56;100.00;100980.91;8351158;28;20036;-62
2022/01/10 08:37:35;;;;;;;29.10;11.55;;;;;;;2.74;100.00;100990.63;8337686;28;20120;-62
2022/01/10 08:41:36;;;;;;;32.72;11.80;;;;;;;2.89;100.00;100984.47;8350401;28;20345;-62
2022/01/10 08:45:38;;;;;;;21.75;10.02;;;;;;;2.94;100.00;101001.13;8333897;28;20045;-62
2022/01/10 08:49:39;;;;;;;23.73;11.00;;;;;;;3.23;100.00;101011.13;8364615;28;20572;-62
2022/01/10 08:53:39;;;;;;;26.92;11.10;;;;;;;4.28;98.71;101004.25;8360137;28;20405;-62
2022/01/10 08:57:40;;;;;;;27.23;10.13;;;;;;;5.41;91.90;101016.94;8365993;28;20041;-62
2022/01/10 09:01:42;;;;;;;23.50;9.20;;;;;;;5.49;88.52;101024.50;8354904;28;20083;-62
2022/01/10 09:05:43;;;;;;;19.92;9.38;;;;;;;5.69;87.79;101026.78;8357810;28;20505;-62
2022/01/10 09:09:43;;;;;;;20.80;8.93;;;;;;;6.11;85.40;101050.88;8361463;28;20064;-62
2022/01/10 09:13:44;;;;;;;17.17;8.18;;;;;;;6.60;83.37;101051.19;8351038;28;20080;-62
2022/01/10 09:17:44;;;;;;;15.20;7.38;;;;;;;6.82;83.29;101044.28;8363816;28;20036;-62
2022/01/10 09:21:45;;;;;;;19.02;7.07;;;;;;;7.49;80.73;101057.47;8365620;28;20049;-62
2022/01/10 09:25:46;;;;;;;11.98;5.65;;;;;;;7.79;78.58;101055.31;8364639;28;20055;-62
2022/01/10 09:29:46;;;;;;;14.85;6.80;;;;;;;8.04;77.26;101066.03;8364694;28;20495;-62
2022/01/10 09:33:52;;;;;;;15.32;6.68;;;;;;;8.34;76.27;101067.47;8359950;28;20056;-62
2022/01/10 09:37:52;;;;;;;13.68;6.35;;;;;;;8.60;76.21;101075.31;8351621;28;20039;-62
2022/01/10 09:41:53;;;;;;;18.20;6.47;;;;;;;9.08;74.67;101085.09;8365900;28;20044;-62
2022/01/10 09:45:54;;;;;;;17.73;6.30;;;;;;;8.95;73.22;101075.38;8370492;28;20051;-62
2022/01/10 09:49:55;;;;;;;17.42;7.05;;;;;;;9.68;72.85;101082.19;8355042;28;20032;-62
2022/01/10 09:53:58;;;;;;;18.17;6.30;;;;;;;9.69;69.72;101092.00;8364064;28;20040;-62
2022/01/10 09:57:58;;;;;;;19.02;6.85;;;;;;;8.82;72.45;101094.34;8364124;28;20063;-62
2022/01/10 10:01:59;;;;;;;13.88;6.65;;;;;;;8.96;74.07;101104.03;8370755;28;20041;-62
2022/01/10 10:05:59;;;;;;;29.33;8.93;;;;;;;9.45;72.60;101104.69;8370193;28;20380;-62
2022/01/10 10:10:07;;;;;;;16.90;6.55;;;;;;;10.12;70.50;101111.94;8364966;28;20051;-62
2022/01/10 10:14:10;;;;;;;20.42;7.13;;;;;;;10.10;69.45;101122.03;8356290;28;20036;-62
2022/01/10 10:18:13;;;;;;;19.15;6.93;;;;;;;10.13;69.73;101135.28;8368376;28;20133;-63
2022/01/10 10:22:15;;;;;;;20.58;7.45;;;;;;;9.78;70.55;101142.56;8367324;28;20048;-63
2022/01/10 10:26:27;;;;;;;22.17;7.55;;;;;;;10.26;69.16;101145.94;8339816;28;20029;-63
2022/01/10 10:30:32;;;;;;;12.35;5.40;;;;;;;10.40;68.62;101151.94;8338766;28;20040;-62
2022/01/10 10:34:33;;;;;;;18.13;6.50;;;;;;;11.25;66.67;101146.59;8353494;28;20045;-63
2022/01/10 10:38:34;;;;;;;10.43;5.63;;;;;;;10.75;66.22;101163.47;8361580;28;20037;-63
2022/01/10 10:42:39;;;;;;;14.13;6.45;;;;;;;10.69;66.75;101158.56;8365656;28;20049;-63
2022/01/10 10:46:40;;;;;;;;;;;;;;;11.85;65.44;101160.34;8365553;28;20528;-63
2022/01/10 10:50:45;;;;;;;11.88;5.80;;;;;;;10.72;67.49;101166.44;8368794;28;20371;-63
2022/01/10 10:54:45;;;;;;;15.90;5.93;;;;;;;10.90;67.61;101162.22;8362536;28;20045;-63
2022/01/10 10:58:46;;;;;;;17.92;6.93;;;;;;;11.46;66.70;101163.72;8369028;28;20047;-63
2022/01/10 11:02:47;;;;;;;12.05;5.10;;;;;;;11.83;64.54;101175.84;8359174;28;20117;-63
2022/01/10 11:06:47;;;;;;;9.68;4.57;;;;;;;12.19;64.46;101176.34;8359330;28;20037;-63
2022/01/10 11:10:48;;;;;;;13.25;4.55;;;;;;;11.88;64.01;101192.59;8358445;28;20036;-63
2022/01/10 11:14:51;;;;;;;10.93;5.32;;;;;;;11.66;64.72;101206.25;8356474;28;20064;-63
2022/01/10 11:18:54;;;;;;;8.73;5.65;;;;;;;12.11;64.29;101205.97;8368322;28;20508;-63
2022/01/10 11:22:57;;;;;;;17.73;5.80;;;;;;;11.74;66.77;101209.16;8366200;28;20123;-63
2022/01/10 11:26:58;;;;;;;9.33;4.90;;;;;;;12.04;65.74;101202.94;8367974;28;20053;-63
2022/01/10 11:31:02;;;;;;;11.40;5.68;;;;;;;12.20;63.57;101200.59;8359022;28;20040;-63
2022/01/10 11:35:05;;;;;;;12.38;6.13;;;;;;;11.03;66.41;101208.03;8362420;28;20124;-63
2022/01/10 11:39:10;;;;;;;12.95;6.28;;;;;;;11.02;68.97;101211.75;8354719;28;20132;-63
2022/01/10 11:48:12;;;;;;;13.90;5.47;;;;;;;12.14;65.30;101219.28;8405755;27;20386;-63
2022/01/10 11:52:13;;;;;;;;;;;;;;;12.15;64.99;101218.25;8365357;28;20049;-63
2022/01/10 11:56:32;;;;;;;10.70;6.27;;;;;;;11.23;66.47;101224.34;8381905;27;19986;-63
2022/01/10 12:00:35;;;;;;;19.05;7.43;;;;;;;11.09;67.69;101232.75;8382345;27;20347;-63
2022/01/10 12:04:39;;;;;;;19.60;6.63;;;;;;;10.82;69.09;101232.31;8381978;27;20576;-63
2022/01/10 12:08:40;;;;;;;20.20;7.40;;;;;;;10.91;68.62;101234.25;8356642;28;20037;-63
2022/01/10 12:12:42;;;;;;;23.60;8.45;;;;;;;10.93;69.11;101243.13;8382301;27;20615;-63
2022/01/10 12:16:42;;;;;;;16.38;7.07;;;;;;;11.09;69.15;101249.00;8406458;27;20101;-63
2022/01/10 12:20:43;;;;;;;22.38;7.75;;;;;;;10.67;71.19;101255.19;8399302;27;20085;-63
2022/01/10 12:24:44;;;;;;;25.17;8.48;;;;;;;10.52;72.68;101250.16;8399107;27;20045;-63
2022/01/10 12:28:44;;;;;;;21.67;7.03;;;;;;;9.89;74.76;101264.97;8376795;28;20116;-63
2022/01/10 12:32:45;;;;;;;17.27;8.57;;;;;;;9.51;75.87;101274.28;8376351;27;20037;-63
2022/01/10 12:36:46;;;;;;;34.80;11.65;;;;;;;8.58;80.68;101286.63;8378115;27;20044;-63
2022/01/10 12:40:51;;;;;;;35.50;13.88;;;;;;;8.40;82.15;101277.16;8380069;27;20139;-63
2022/01/10 12:44:52;;;;;;;37.90;13.65;;;;;;;8.33;82.48;101289.34;8378020;27;20116;-63
2022/01/10 12:48:52;;;;;;;39.05;13.77;;;;;;;8.72;82.13;101295.44;8378174;27;20295;-63
2022/01/10 12:52:54;;;;;;;41.35;12.32;;;;;;;8.36;83.00;101297.22;8379746;27;20045;-63
2022/01/10 12:56:57;;;;;;;41.00;12.80;;;;;;;8.11;83.46;101313.31;8365749;28;20047;-63
2022/01/10 13:00:57;;;;;;;37.00;14.00;;;;;;;8.09;83.56;101325.03;8360890;28;22611;-63
2022/01/10 13:04:58;;;;;;;39.58;13.65;;;;;;;8.03;84.60;101321.94;8363317;28;20069;-63
2022/01/10 13:08:58;;;;;;;36.72;10.80;;;;;;;8.01;84.04;101327.41;8356439;28;20041;-63
2022/01/10 13:13:01;;;;;;;31.45;11.05;;;;;;;8.28;83.74;101323.81;8362523;28;20088;-63
2022/01/10 13:17:07;;;;;;;31.45;11.88;;;;;;;8.15;83.51;101326.47;8351152;28;20044;-63
2022/01/10 13:21:08;;;;;;;32.90;12.07;;;;;;;8.15;83.60;101347.16;8333999;28;20071;-63
2022/01/10 13:25:14;;;;;;;37.33;11.85;;;;;;;8.40;83.26;101358.00;8322565;28;20140;-63
2022/01/10 13:29:33;;;;;;;38.88;11.02;;;;;;;8.46;82.73;101369.22;8308300;28;20044;-63
2022/01/10 13:33:44;;;;;;;26.58;9.50;;;;;;;8.32;82.93;101376.53;8323376;28;20037;-63
2022/01/10 13:37:48;;;;;;;26.98;9.55;;;;;;;8.00;84.06;101387.59;8328765;28;20037;-63
2022/01/10 13:41:58;;;;;;;38.17;11.38;;;;;;;8.20;84.00;101388.09;8323316;28;20563;-63
2022/01/10 13:46:05;;;;;;;32.45;11.05;;;;;;;7.88;84.44;101384.88;8307455;28;20308;-63
2022/01/10 13:50:24;;;;;;;32.10;10.52;;;;;;;8.26;83.99;101383.19;8329473;28;20378;-63
2022/01/10 13:54:31;;;;;;;32.97;11.02;;;;;;;8.13;84.40;101386.78;8333563;28;20087;-63
2022/01/10 13:58:33;;;;;;;37.00;12.70;;;;;;;7.82;86.49;101393.38;8315453;28;20033;-63
2022/01/10 14:02:37;;;;;;;29.30;9.82;;;;;;;7.80;83.54;101396.16;8338623;28;20590;-63
2022/01/10 14:06:37;;;;;;;34.63;11.52;;;;;;;7.92;84.74;101410.63;8345570;28;20118;-63
2022/01/10 14:10:37;;;;;;;30.65;9.90;;;;;;;8.04;83.81;101410.69;8354514;28;20493;-63
2022/01/10 14:14:39;;;;;;;31.10;11.10;;;;;;;7.92;83.45;101411.50;8341270;28;20119;-63
2022/01/10 14:18:40;;;;;;;36.78;11.07;;;;;;;7.92;85.27;101414.19;8346447;28;20103;-63
2022/01/10 14:22:41;;;;;;;32.08;10.80;;;;;;;7.70;86.21;101421.97;8347948;28;20043;-63
2022/01/10 14:26:42;;;;;;;35.63;12.57;;;;;;;7.70;85.01;101421.97;8353959;28;20048;-63
2022/01/10 14:30:44;;;;;;;30.17;10.13;;;;;;;7.64;84.61;101427.75;8355604;28;20041;-63
2022/01/10 14:34:45;;;;;;;33.60;10.80;;;;;;;7.58;85.02;101428.16;8363841;28;20043;-63
2022/01/10 14:38:47;;;;;;;33.28;12.00;;;;;;;7.45;85.44;101435.28;8343882;28;20528;-63
2022/01/10 14:42:47;;;;;;;33.03;10.25;;;;;;;7.61;85.43;101422.56;8348802;28;20352;-63
2022/01/10 14:46:48;;;;;;;37.65;11.48;;;;;;;7.44;86.24;101427.31;8351809;28;20045;-63
2022/01/10 14:50:49;;;;;;;35.08;10.73;;;;;;;7.33;85.91;101444.13;8355484;28;20407;-63
2022/01/10 14:54:49;;;;;;;35.75;12.40;;;;;;;7.32;86.26;101447.75;8357797;28;20121;-63
2022/01/10 14:58:50;;;;;;;32.63;11.63;;;;;;;7.40;86.66;101456.22;8359481;28;20068;-63
2022/01/10 15:02:50;;;;;;;38.70;12.05;;;;;;;7.32;87.17;101458.53;8360395;28;20147;-63
2022/01/10 15:06:51;;;;;;;34.38;11.68;;;;;;;7.34;87.29;101467.38;8343161;28;20120;-63
2022/01/10 15:10:52;;;;;;;43.08;13.77;;;;;;;7.05;88.85;101465.63;8342122;28;20067;-63
2022/01/10 15:14:54;;;;;;;49.13;15.32;;;;;;;6.81;90.32;101471.66;8352872;28;20135;-63
2022/01/10 15:18:55;;;;;;;52.53;17.17;;;;;;;6.90;91.03;101488.09;8356867;28;20033;-63
2022/01/10 15:22:55;;;;;;;37.78;14.43;;;;;;;6.62;91.73;101496.06;8354958;28;20051;-63
2022/01/10 15:26:57;;;;;;;45.30;15.57;;;;;;;6.54;92.50;101505.56;8346815;28;20049;-63
2022/01/10 15:30:57;;;;;;;36.90;14.75;;;;;;;6.45;93.16;101517.72;8334095;28;20045;-63
2022/01/10 15:34:58;;;;;;;43.15;15.32;;;;;;;6.33;94.01;101534.56;8356773;28;20044;-63
2022/01/10 15:38:58;;;;;;;40.97;14.48;;;;;;;5.75;95.04;101530.72;8349428;28;20106;-63
2022/01/10 15:42:59;;;;;;;50.08;18.17;;;;;;;5.57;98.43;101532.63;8351893;28;20040;-63
2022/01/10 15:47:02;;;;;;;58.92;18.30;;;;;;;5.88;98.92;101531.78;8373598;28;20048;-63
2022/01/10 15:51:02;;;;;;;42.00;15.38;;;;;;;5.84;98.02;101540.97;8348404;28;20256;-63
2022/01/10 15:55:04;;;;;;;44.10;13.98;;;;;;;5.25;98.66;101551.41;8355502;28;20128;-63
2022/01/10 15:59:05;;;;;;;43.53;14.63;;;;;;;5.18;99.90;101571.41;8344754;28;20052;-63
2022/01/10 16:03:05;;;;;;;36.15;14.20;;;;;;;5.05;100.00;101562.28;8337827;28;20033;-63
2022/01/10 16:07:06;;;;;;;45.90;16.05;;;;;;;5.17;100.00;101580.41;8342581;28;20048;-63
2022/01/10 16:11:07;;;;;;;52.00;16.08;;;;;;;5.30;100.00;101582.38;8343003;28;20033;-63
2022/01/10 16:15:07;;;;;;;44.00;15.90;;;;;;;4.96;100.00;101586.88;8341056;28;20102;-63
2022/01/10 16:19:08;;;;;;;42.17;16.35;;;;;;;4.79;100.00;101589.56;8341804;28;20037;-63
2022/01/10 16:23:08;;;;;;;42.58;15.40;;;;;;;4.30;100.00;101595.66;8347377;28;20622;-63
2022/01/10 16:27:09;;;;;;;48.65;17.75;;;;;;;4.37;100.00;101602.41;8333191;28;20128;-62
2022/01/10 16:31:11;;;;;;;50.33;16.77;;;;;;;4.53;100.00;101608.75;8334229;28;20060;-62
2022/01/10 16:35:12;;;;;;;46.08;17.15;;;;;;;4.17;100.00;101615.91;8353812;28;20120;-62
2022/01/10 16:39:13;;;;;;;58.97;19.88;;;;;;;4.36;100.00;101616.75;8356236;28;20033;-62
2022/01/10 16:43:13;;;;;;;62.00;20.52;;;;;;;4.51;100.00;101632.94;8356074;28;20115;-62
2022/01/10 16:47:15;;;;;;;59.08;16.73;;;;;;;4.32;100.00;101636.56;8347698;28;20045;-62
2022/01/10 16:51:15;;;;;;;66.25;20.40;;;;;;;4.21;100.00;101634.41;8364595;28;20494;-62
2022/01/10 16:55:15;;;;;;;56.55;21.83;;;;;;;4.13;100.00;101641.94;8364014;28;20086;-62
2022/01/10 16:59:16;;;;;;;76.00;22.50;;;;;;;3.94;100.00;101646.44;8356254;28;20102;-62
2022/01/10 17:03:17;;;;;;;74.72;23.65;;;;;;;3.85;100.00;101655.72;8362668;28;20044;-63
2022/01/10 17:07:18;;;;;;;72.07;25.40;;;;;;;3.77;100.00;101649.00;8352756;28;20120;-62
2022/01/10 17:11:18;;;;;;;66.30;22.80;;;;;;;3.81;100.00;101656.81;8355125;28;20511;-62
2022/01/10 17:15:20;;;;;;;67.07;23.95;;;;;;;3.71;100.00;101666.19;8356216;28;20509;-62
2022/01/10 17:19:21;;;;;;;65.25;22.40;;;;;;;3.71;100.00;101671.56;8366807;28;20117;-62
2022/01/10 17:23:21;;;;;;;69.72;22.40;;;;;;;3.65;100.00;101677.16;8359530;28;20049;-62
2022/01/10 17:27:21;;;;;;;58.58;21.90;;;;;;;3.55;100.00;101691.91;8346704;28;20053;-62
2022/01/10 17:31:22;;;;;;;50.78;20.23;;;;;;;3.74;100.00;101687.47;8338887;28;20059;-63
2022/01/10 17:35:22;;;;;;;60.70;20.05;;;;;;;3.89;100.00;101686.75;8351555;28;20091;-62
2022/01/10 17:39:23;;;;;;;50.33;20.08;;;;;;;3.94;100.00;101711.47;8350460;28;20412;-62
2022/01/10 17:43:23;;;;;;;66.18;21.40;;;;;;;3.77;100.00;101721.19;8343653;28;20393;-62
2022/01/10 17:47:26;;;;;;;53.85;22.05;;;;;;;3.20;100.00;101711.25;8334988;28;20049;-62
2022/01/10 17:51:35;;;;;;;76.63;25.75;;;;;;;3.20;100.00;101721.09;8344189;28;20598;-62
2022/01/10 17:55:36;;;;;;;67.50;24.95;;;;;;;3.06;100.00;101723.44;8346464;28;20037;-62
2022/01/10 17:59:36;;;;;;;90.43;29.10;;;;;;;3.03;100.00;101735.13;8351261;28;20087;-62
2022/01/10 18:03:36;;;;;;;60.63;21.02;;;;;;;3.08;100.00;101735.78;8351179;28;20356;-62
2022/01/10 18:07:37;;;;;;;59.28;22.92;;;;;;;3.00;100.00;101751.28;8353148;28;20037;-62
2022/01/10 18:11:38;;;;;;;71.63;23.98;;;;;;;3.22;100.00;101765.50;8356835;28;20055;-62
2022/01/10 18:15:38;;;;;;;69.28;23.17;;;;;;;3.34;100.00;101761.44;8356668;28;20067;-61
2022/01/10 18:19:39;;;;;;;64.53;24.27;;;;;;;3.36;100.00;101764.91;8358171;28;20049;-62
2022/01/10 18:23:39;;;;;;;56.90;22.35;;;;;;;3.30;100.00;101768.69;8358657;28;20044;-62
2022/01/10 18:27:42;;;;;;;76.20;25.85;;;;;;;3.30;100.00;101760.69;8354911;28;20059;-62
2022/01/10 18:31:43;;;;;;;57.08;23.00;;;;;;;3.30;100.00;101779.38;8348793;28;20499;-62
2022/01/10 18:35:43;;;;;;;87.75;33.83;;;;;;;3.31;100.00;101789.16;8361088;28;20250;-62
2022/01/10 18:39:44;;;;;;;69.97;26.45;;;;;;;3.23;100.00;101791.28;8357363;28;20099;-62